Flight Track Log - Related Links

Times and Time Zones

All times are in EDT time to prevent confusion due to time zone crossing. See the ANA969 flight status page for this flight to view local times or setup timezone preferences in your user account.

Time Position Orientation Groundspeed Altitude Reporting Facility
EDT Latitude Longitude Course Direction KTS MPH feet Rate Location/Type
Wed 12:51:00 AM 36.0219 137.9535 288° West  Level Estimated
Wed 12:52:00 AM 36.0458 137.8568 287° West  Level Estimated
Wed 12:53:00 AM 36.0697 137.7601 287° West  Level Estimated
Wed 12:54:00 AM 36.0935 137.6632 287° West  Level Estimated
Wed 12:55:00 AM 36.1172 137.5663 287° West  Level Estimated
Wed 12:56:00 AM 36.1408 137.4694 287° West  Level Estimated
Wed 12:57:00 AM 36.1644 137.3724 287° West  Level Estimated
Wed 12:58:00 AM 36.1879 137.2753 287° West  Level Estimated
Wed 12:59:00 AM 36.2113 137.1782 287° West  Level Estimated
Wed 01:00:00 AM 36.2346 137.0810 287° West  Level Estimated
Wed 01:01:00 AM 36.2578 136.9838 287° West  Level Estimated
Wed 01:02:00 AM 36.2810 136.8865 286° West  Level Estimated
Wed 01:03:00 AM 36.3041 136.7892 286° West  Level Estimated
Wed 01:04:00 AM 36.3271 136.6918 286° West  Level Estimated
Wed 01:05:00 AM 36.3500 136.5943 286° West  Level Estimated
Wed 01:06:00 AM 36.3728 136.4968 286° West  Level Estimated
Wed 01:07:00 AM 36.3936 136.4078 286° West  Level Estimated
Wed 01:08:00 AM 36.3936 136.4078 302° West  Level Estimated
Wed 01:09:00 AM 36.3936 136.4078 302° West  Level Estimated
Wed 01:10:00 AM 36.3936 136.4078 302° West  Level Estimated
Wed 01:11:00 AM 36.3936 136.4078 302° West  Level Estimated
Wed 01:12:00 AM 36.3936 136.4078 302° West  Level Estimated
Wed 01:13:00 AM 36.3936 136.4078 302° West  Level Estimated
Wed 01:14:00 AM 36.3936 136.4078 302° West  Level Estimated
Wed 01:15:00 AM 36.3936 136.4078 302° West  Level Estimated
Wed 01:16:00 AM 36.3936 136.4078 302° West  Level Estimated
Wed 01:17:00 AM 36.3936 136.4078 302° West  Level Estimated
Wed 01:18:00 AM 36.3936 136.4078 302° West  Level Estimated
Wed 01:19:00 AM 36.3936 136.4078 302° West  Level Estimated
Wed 01:20:00 AM 36.3936 136.4078 302° West  Level Estimated
Wed 01:21:00 AM 36.3936 136.4078 302° West  Level Estimated
Wed 01:22:00 AM 36.3936 136.4078 302° West  Level Estimated
Wed 01:23:00 AM 36.3936 136.4078 302° West  Level Estimated

Login

Don't have an account? Register now (free) for customized features, flight alerts, and more!